createdAt,value
2018-09-25T00:00:47.515Z,83.90
2018-09-25T00:03:21.864Z,83.90
2018-09-25T00:05:56.322Z,83.90
2018-09-25T00:08:30.601Z,83.90
2018-09-25T00:11:05.025Z,84.00
2018-09-25T00:13:39.425Z,84.20
2018-09-25T00:16:13.782Z,84.30
2018-09-25T00:18:48.311Z,84.30
2018-09-25T00:21:23.024Z,84.50
2018-09-25T00:23:57.336Z,84.60
2018-09-25T00:26:31.573Z,84.80
2018-09-25T00:29:05.912Z,84.90
2018-09-25T00:31:40.214Z,85.00
2018-09-25T00:34:14.708Z,85.00
2018-09-25T00:36:49.468Z,85.20
2018-09-25T00:39:23.885Z,85.30
2018-09-25T00:41:58.330Z,85.30
2018-09-25T00:44:32.701Z,85.40
2018-09-25T00:47:07.015Z,85.40
2018-09-25T00:49:41.385Z,85.50
2018-09-25T00:52:15.844Z,85.50
2018-09-25T00:54:50.092Z,85.50
2018-09-25T00:57:24.612Z,85.50
2018-09-25T00:59:58.874Z,85.50
2018-09-25T01:02:33.168Z,85.50
2018-09-25T01:05:07.545Z,85.60
2018-09-25T01:07:41.982Z,85.60
2018-09-25T01:10:16.324Z,85.60
2018-09-25T01:12:50.577Z,85.80
2018-09-25T01:15:25.045Z,85.80
2018-09-25T01:17:59.384Z,85.80
2018-09-25T01:20:33.768Z,85.80
2018-09-25T01:23:08.316Z,85.90
2018-09-25T01:25:42.615Z,85.90
2018-09-25T01:28:16.987Z,86.00
2018-09-25T01:30:51.505Z,85.90
2018-09-25T01:33:26.400Z,85.90
2018-09-25T01:36:00.980Z,85.90
2018-09-25T01:38:35.451Z,85.90
2018-09-25T01:41:09.916Z,85.90
2018-09-25T01:43:44.200Z,85.90
2018-09-25T01:46:18.682Z,85.90
2018-09-25T01:48:53.741Z,85.90
2018-09-25T01:51:28.234Z,85.80
2018-09-25T01:54:02.642Z,85.50
2018-09-25T01:56:37.118Z,85.30
2018-09-25T01:59:11.623Z,85.10
2018-09-25T02:01:46.056Z,85.10
2018-09-25T02:04:20.349Z,85.20
2018-09-25T02:06:54.882Z,85.30
2018-09-25T02:09:29.281Z,85.40
2018-09-25T02:12:03.678Z,85.50
2018-09-25T02:14:38.416Z,85.60
2018-09-25T02:17:12.967Z,85.70
2018-09-25T02:19:51.364Z,85.80
2018-09-25T02:22:26.368Z,85.90
2018-09-25T02:25:00.815Z,85.80
2018-09-25T02:27:35.299Z,85.90
2018-09-25T02:30:09.761Z,85.80
2018-09-25T02:32:44.188Z,85.80
2018-09-25T02:35:18.622Z,86.00
2018-09-25T02:37:53.208Z,86.10
2018-09-25T02:40:27.726Z,86.00
2018-09-25T02:43:02.176Z,85.90
2018-09-25T02:45:36.574Z,85.90
2018-09-25T02:48:11.102Z,86.00
2018-09-25T02:50:45.429Z,86.10
2018-09-25T02:53:19.778Z,86.30
2018-09-25T02:55:54.257Z,87.10
2018-09-25T02:58:28.621Z,86.30
2018-09-25T03:01:03.089Z,86.10
2018-09-25T03:03:37.536Z,85.90
2018-09-25T03:06:12.151Z,86.10
2018-09-25T03:08:47.219Z,86.10
2018-09-25T03:11:21.620Z,86.20
2018-09-25T03:13:55.941Z,86.40
2018-09-25T03:16:30.339Z,86.30
2018-09-25T03:19:04.737Z,86.30
2018-09-25T03:21:39.933Z,86.30
2018-09-25T03:24:14.388Z,86.50
2018-09-25T03:26:48.915Z,86.70
2018-09-25T03:29:23.377Z,86.80
2018-09-25T03:31:57.885Z,86.70
2018-09-25T03:34:32.309Z,86.50
2018-09-25T03:37:06.737Z,86.30
2018-09-25T03:39:41.632Z,86.50
2018-09-25T03:42:17.361Z,86.40
2018-09-25T03:44:51.608Z,86.30
2018-09-25T03:47:27.856Z,86.20
2018-09-25T03:50:02.096Z,86.30
2018-09-25T03:52:36.540Z,86.30
2018-09-25T03:55:10.964Z,86.50
2018-09-25T03:57:45.524Z,86.60
2018-09-25T04:00:19.925Z,86.80
2018-09-25T04:02:55.130Z,86.90
2018-09-25T04:05:29.617Z,86.80
2018-09-25T04:08:04.053Z,86.80
2018-09-25T04:10:38.486Z,86.80
2018-09-25T04:13:12.969Z,86.70
2018-09-25T04:15:47.401Z,86.60
2018-09-25T04:18:21.856Z,86.60
2018-09-25T04:20:56.367Z,86.90
2018-09-25T04:23:31.508Z,87.10
2018-09-25T04:26:05.933Z,87.30
2018-09-25T04:28:40.460Z,87.40
2018-09-25T04:31:15.279Z,87.40
2018-09-25T04:33:50.250Z,87.60
2018-09-25T04:36:25.132Z,87.50
2018-09-25T04:38:59.713Z,87.60
2018-09-25T04:41:34.606Z,87.50
2018-09-25T04:44:09.515Z,87.50
2018-09-25T04:46:44.478Z,87.50
2018-09-25T04:49:19.356Z,87.40
2018-09-25T04:51:54.260Z,87.30
2018-09-25T04:54:29.596Z,87.20
2018-09-25T04:57:04.284Z,87.20
2018-09-25T04:59:39.117Z,87.20
2018-09-25T05:02:14.237Z,87.10
2018-09-25T05:04:48.941Z,86.90
2018-09-25T05:07:23.732Z,87.10
2018-09-25T05:09:59.128Z,87.80
2018-09-25T05:12:33.496Z,87.00
2018-09-25T05:15:08.343Z,87.20
2018-09-25T05:17:43.496Z,87.00
2018-09-25T05:20:18.364Z,87.10
2018-09-25T05:22:54.506Z,87.00
2018-09-25T05:25:29.049Z,87.10
2018-09-25T05:28:03.517Z,87.30
2018-09-25T05:30:38.009Z,87.10
2018-09-25T05:33:12.715Z,87.10
2018-09-25T05:35:48.074Z,87.40
2018-09-25T05:38:22.806Z,87.50
2018-09-25T05:40:57.479Z,87.80
2018-09-25T05:43:32.012Z,88.30
2018-09-25T05:46:06.594Z,88.60
2018-09-25T05:48:41.484Z,88.90
2018-09-25T05:51:16.354Z,88.90
2018-09-25T05:53:51.145Z,89.00
2018-09-25T05:56:26.260Z,89.10
2018-09-25T05:59:00.805Z,89.10
2018-09-25T06:01:35.346Z,89.40
2018-09-25T06:04:10.169Z,89.30
2018-09-25T06:06:44.992Z,89.30
2018-09-25T06:09:19.770Z,88.70
2018-09-25T06:11:54.196Z,88.30
2018-09-25T06:14:28.754Z,87.60
2018-09-25T06:17:03.254Z,87.00
2018-09-25T06:19:38.216Z,86.70
2018-09-25T06:22:15.410Z,86.20
2018-09-25T06:24:49.967Z,86.10
2018-09-25T06:27:24.736Z,85.30
2018-09-25T06:29:59.290Z,85.10
2018-09-25T06:32:34.018Z,84.30
2018-09-25T06:35:09.017Z,83.90
2018-09-25T06:37:44.459Z,82.90
2018-09-25T06:40:18.930Z,82.60
2018-09-25T06:42:53.803Z,81.80
2018-09-25T06:45:28.240Z,81.20
2018-09-25T06:48:02.621Z,80.10
2018-09-25T06:50:36.944Z,79.50
2018-09-25T06:53:12.460Z,79.00
2018-09-25T06:55:47.233Z,78.10
2018-09-25T06:58:22.095Z,76.90
2018-09-25T07:00:56.884Z,76.80
2018-09-25T07:03:31.394Z,76.20
2018-09-25T07:06:05.975Z,75.90
2018-09-25T07:08:40.449Z,75.10
2018-09-25T07:11:14.983Z,75.60
2018-09-25T07:13:49.682Z,75.90
2018-09-25T07:16:24.320Z,76.10
2018-09-25T07:18:58.903Z,74.80
2018-09-25T07:21:33.564Z,73.00
2018-09-25T07:24:08.213Z,72.90
2018-09-25T07:26:43.109Z,72.30
2018-09-25T07:29:17.716Z,71.80
2018-09-25T07:31:52.601Z,71.60
2018-09-25T07:34:27.364Z,70.90
2018-09-25T07:37:02.069Z,70.00
2018-09-25T07:39:36.749Z,69.70
2018-09-25T07:42:11.485Z,67.90
2018-09-25T07:44:46.485Z,67.60
2018-09-25T07:47:21.549Z,66.40
2018-09-25T07:49:56.082Z,65.60
2018-09-25T07:52:30.729Z,64.70
2018-09-25T07:55:05.202Z,63.30
2018-09-25T07:57:40.141Z,62.50
2018-09-25T08:00:14.755Z,61.10
2018-09-25T08:02:49.537Z,60.40
2018-09-25T08:05:24.330Z,59.70
2018-09-25T08:07:58.844Z,58.80
2018-09-25T08:10:33.528Z,58.90
2018-09-25T08:13:08.328Z,58.80
2018-09-25T08:15:43.458Z,57.90
2018-09-25T08:18:18.281Z,56.60
2018-09-25T08:20:53.231Z,55.50
2018-09-25T08:23:27.999Z,54.50
2018-09-25T08:26:02.545Z,53.60
2018-09-25T08:28:37.267Z,53.60
2018-09-25T08:31:12.273Z,52.70
2018-09-25T08:33:47.389Z,53.40
2018-09-25T08:36:22.688Z,54.00
2018-09-25T08:38:57.269Z,54.40
2018-09-25T08:41:32.665Z,54.50
2018-09-25T08:44:07.390Z,54.50
2018-09-25T08:46:42.115Z,54.90
2018-09-25T08:49:18.343Z,54.50
2018-09-25T08:51:54.613Z,53.90
2018-09-25T08:54:29.914Z,53.80
2018-09-25T08:57:04.677Z,53.80
2018-09-25T08:59:39.624Z,54.80
2018-09-25T09:02:14.445Z,53.80
2018-09-25T09:04:49.614Z,54.20
2018-09-25T09:07:24.457Z,54.10
2018-09-25T09:09:58.969Z,53.90
2018-09-25T09:12:33.973Z,53.70
2018-09-25T09:15:11.763Z,55.30
2018-09-25T09:17:47.032Z,55.00
2018-09-25T09:20:22.047Z,55.10
2018-09-25T09:22:57.069Z,56.40
2018-09-25T09:25:32.067Z,57.20
2018-09-25T09:28:06.623Z,57.80
2018-09-25T09:30:41.233Z,58.30
2018-09-25T09:33:17.500Z,56.90
2018-09-25T09:35:52.458Z,56.70
2018-09-25T09:38:27.975Z,56.30
2018-09-25T09:41:02.688Z,55.50
2018-09-25T09:43:37.348Z,55.60
2018-09-25T09:46:11.798Z,56.10
2018-09-25T09:48:47.266Z,57.00
2018-09-25T09:51:22.536Z,58.70
2018-09-25T09:53:57.292Z,58.50
2018-09-25T09:56:32.416Z,57.80
2018-09-25T09:59:07.320Z,57.70
2018-09-25T10:01:42.590Z,57.80
2018-09-25T10:04:18.546Z,56.80
2018-09-25T10:06:53.806Z,57.70
2018-09-25T10:09:28.486Z,57.80
2018-09-25T10:12:03.589Z,56.10
2018-09-25T10:14:38.250Z,55.80
2018-09-25T10:17:13.336Z,55.00
2018-09-25T10:19:49.006Z,55.80
2018-09-25T10:22:24.237Z,55.40
2018-09-25T10:24:59.081Z,53.40
2018-09-25T10:27:34.159Z,53.30
2018-09-25T10:30:09.782Z,53.40
2018-09-25T10:32:45.002Z,53.60
2018-09-25T10:35:19.742Z,53.30
2018-09-25T10:37:54.869Z,53.10
2018-09-25T10:40:30.201Z,53.50
2018-09-25T10:43:05.824Z,53.30
2018-09-25T10:45:40.562Z,53.10
2018-09-25T10:48:15.653Z,53.90
2018-09-25T10:50:50.961Z,54.20
2018-09-25T10:53:25.965Z,54.00
2018-09-25T10:56:01.054Z,53.90
2018-09-25T10:58:37.510Z,54.60
2018-09-25T11:01:12.693Z,54.10
2018-09-25T11:03:47.509Z,54.20
2018-09-25T11:06:22.958Z,54.80
2018-09-25T11:08:58.395Z,55.20
2018-09-25T11:11:33.428Z,54.80
2018-09-25T11:14:08.184Z,54.50
2018-09-25T11:16:43.157Z,53.90
2018-09-25T11:19:18.533Z,53.40
2018-09-25T11:21:53.374Z,53.80
2018-09-25T11:24:28.248Z,53.40
2018-09-25T11:27:02.888Z,53.30
2018-09-25T11:29:38.658Z,53.40
2018-09-25T11:32:13.614Z,52.90
2018-09-25T11:34:48.761Z,53.40
2018-09-25T11:37:25.423Z,53.50
2018-09-25T11:40:01.392Z,53.90
2018-09-25T11:42:36.177Z,54.00
2018-09-25T11:45:11.499Z,54.40
2018-09-25T11:47:46.275Z,54.70
2018-09-25T11:50:21.136Z,55.00
2018-09-25T11:52:56.632Z,54.80
2018-09-25T11:55:32.450Z,54.30
2018-09-25T12:00:57.952Z,54.20
2018-09-25T12:03:33.324Z,55.60
2018-09-25T12:06:08.233Z,55.40
2018-09-25T12:08:43.953Z,54.80
2018-09-25T12:11:18.780Z,56.10
2018-09-25T12:13:53.795Z,55.40
2018-09-25T12:16:28.538Z,55.20
2018-09-25T12:19:03.069Z,54.80
2018-09-25T12:21:37.973Z,55.00
2018-09-25T12:24:13.187Z,55.20
2018-09-25T12:26:48.106Z,56.20
2018-09-25T12:29:22.823Z,56.00
2018-09-25T12:31:57.707Z,55.90
2018-09-25T12:34:32.765Z,56.10
2018-09-25T12:37:07.254Z,56.40
2018-09-25T12:39:42.150Z,54.50
2018-09-25T12:42:16.806Z,55.50
2018-09-25T12:44:51.377Z,56.20
2018-09-25T12:47:25.966Z,54.20
2018-09-25T12:50:00.572Z,55.10
2018-09-25T12:52:35.236Z,56.10
2018-09-25T12:55:10.203Z,56.40
2018-09-25T12:57:45.616Z,56.10
2018-09-25T13:00:20.216Z,55.50
2018-09-25T13:02:54.892Z,55.80
2018-09-25T13:05:29.685Z,55.90
2018-09-25T13:08:04.533Z,54.80
2018-09-25T13:10:39.514Z,55.80
2018-09-25T13:13:14.252Z,55.40
2018-09-25T13:15:49.041Z,54.30
2018-09-25T13:18:23.564Z,54.30
2018-09-25T13:20:58.163Z,54.80
2018-09-25T13:23:33.019Z,54.80
2018-09-25T13:26:07.705Z,55.40
2018-09-25T13:28:42.591Z,55.00
2018-09-25T13:31:17.606Z,55.20
2018-09-25T13:33:53.578Z,54.90
2018-09-25T13:36:28.612Z,54.40
2018-09-25T13:39:03.136Z,54.90
2018-09-25T13:41:37.940Z,54.20
2018-09-25T13:44:12.623Z,54.10
2018-09-25T13:46:47.601Z,55.60
2018-09-25T13:49:21.924Z,55.00
2018-09-25T13:51:56.773Z,54.80
2018-09-25T13:54:31.687Z,55.60
2018-09-25T13:57:06.167Z,55.70
2018-09-25T13:59:42.417Z,55.40
2018-09-25T14:02:17.483Z,55.50
2018-09-25T14:04:52.417Z,54.80
2018-09-25T14:07:27.481Z,55.40
2018-09-25T14:10:02.202Z,56.10
2018-09-25T14:12:36.668Z,55.00
2018-09-25T14:15:12.786Z,55.70
2018-09-25T14:17:48.794Z,55.40
2018-09-25T14:20:23.594Z,56.00
2018-09-25T14:22:58.033Z,56.20
2018-09-25T14:25:32.975Z,55.90
2018-09-25T14:28:07.499Z,56.50
2018-09-25T14:30:41.998Z,55.30
2018-09-25T14:33:16.603Z,55.50
2018-09-25T14:35:51.269Z,55.80
2018-09-25T14:38:26.098Z,55.30
2018-09-25T14:41:02.713Z,54.80
2018-09-25T14:43:37.494Z,54.80
2018-09-25T14:46:12.134Z,55.20
2018-09-25T14:48:47.070Z,56.40
2018-09-25T14:51:21.852Z,55.50
2018-09-25T14:53:56.710Z,54.40
2018-09-25T14:56:31.451Z,55.10
2018-09-25T14:59:06.097Z,55.60
2018-09-25T15:01:40.886Z,56.10
2018-09-25T15:04:15.699Z,56.20
2018-09-25T15:06:50.594Z,56.10
2018-09-25T15:09:25.251Z,56.50
2018-09-25T15:11:59.836Z,56.20
2018-09-25T15:14:34.334Z,56.00
2018-09-25T15:17:08.985Z,56.00
2018-09-25T15:19:43.872Z,56.00
2018-09-25T15:22:22.094Z,55.60
2018-09-25T15:24:56.199Z,55.90
2018-09-25T15:27:31.142Z,55.60
2018-09-25T15:30:07.772Z,54.70
2018-09-25T15:32:42.659Z,55.10
2018-09-25T15:35:17.564Z,55.20
2018-09-25T15:37:52.715Z,54.30
2018-09-25T15:40:27.496Z,55.70
2018-09-25T15:43:02.234Z,56.00
2018-09-25T15:45:37.311Z,56.00
2018-09-25T15:48:12.013Z,55.50
2018-09-25T15:50:47.417Z,55.50
2018-09-25T15:53:23.688Z,55.20
2018-09-25T15:55:58.876Z,55.80
2018-09-25T15:58:34.070Z,55.40
2018-09-25T16:01:08.739Z,54.60
2018-09-25T16:03:43.666Z,54.70
2018-09-25T16:06:18.457Z,54.50
2018-09-25T16:08:53.731Z,55.60
2018-09-25T16:11:28.182Z,55.90
2018-09-25T16:14:02.744Z,55.80
2018-09-25T16:16:37.564Z,55.60
2018-09-25T16:19:12.435Z,55.80
2018-09-25T16:21:47.262Z,55.10
2018-09-25T16:24:21.729Z,55.60
2018-09-25T16:26:56.525Z,54.80
2018-09-25T16:29:31.005Z,54.40
2018-09-25T16:32:05.644Z,54.70
2018-09-25T16:34:40.248Z,54.80
2018-09-25T16:37:14.819Z,54.80
2018-09-25T16:39:49.899Z,55.10
2018-09-25T16:42:24.569Z,55.80
2018-09-25T16:44:59.267Z,54.60
2018-09-25T16:47:33.974Z,55.00
2018-09-25T16:50:08.414Z,54.90
2018-09-25T16:52:42.883Z,55.40
2018-09-25T16:55:18.103Z,55.50
2018-09-25T16:57:53.612Z,55.80
2018-09-25T17:00:28.705Z,56.10
2018-09-25T17:03:03.340Z,56.40
2018-09-25T17:05:38.038Z,56.60
2018-09-25T17:08:12.406Z,56.80
2018-09-25T17:10:47.930Z,57.10
2018-09-25T17:13:22.948Z,57.70
2018-09-25T17:15:57.389Z,57.50
2018-09-25T17:18:31.997Z,57.90
2018-09-25T17:21:08.208Z,58.20
2018-09-25T17:23:42.872Z,58.40
2018-09-25T17:26:18.312Z,58.60
2018-09-25T17:28:53.254Z,58.80
2018-09-25T17:31:28.002Z,59.10
2018-09-25T17:34:02.665Z,59.50
2018-09-25T17:36:37.333Z,59.60
2018-09-25T17:39:14.872Z,60.00
2018-09-25T17:41:49.846Z,60.20
2018-09-25T17:44:25.497Z,60.40
2018-09-25T17:47:00.116Z,60.60
2018-09-25T17:49:35.025Z,61.10
2018-09-25T17:52:10.240Z,61.30
2018-09-25T17:54:45.928Z,61.70
2018-09-25T17:57:21.637Z,62.00
2018-09-25T17:59:57.059Z,62.00
2018-09-25T18:02:32.592Z,62.00
2018-09-25T18:05:09.181Z,62.30
2018-09-25T18:07:46.738Z,62.70
2018-09-25T18:10:21.940Z,62.60
2018-09-25T18:12:57.875Z,62.40
2018-09-25T18:15:32.910Z,62.70
2018-09-25T18:18:07.839Z,62.90
2018-09-25T18:20:42.550Z,63.20
2018-09-25T18:23:18.590Z,63.50
2018-09-25T18:25:53.551Z,63.80
2018-09-25T18:28:28.683Z,63.90
2018-09-25T18:31:03.447Z,64.30
2018-09-25T18:33:38.343Z,64.60
2018-09-25T18:36:14.319Z,64.70
2018-09-25T18:38:49.055Z,65.00
2018-09-25T18:41:23.830Z,65.10
2018-09-25T18:43:58.332Z,65.30
2018-09-25T18:46:32.896Z,65.10
2018-09-25T18:49:07.332Z,65.20
2018-09-25T18:51:42.235Z,65.30
2018-09-25T18:54:16.558Z,65.40
2018-09-25T18:56:51.110Z,65.50
2018-09-25T18:59:25.852Z,66.00
2018-09-25T19:04:41.761Z,66.50
2018-09-25T19:07:16.548Z,67.50
2018-09-25T19:09:50.985Z,67.30
2018-09-25T19:12:25.698Z,67.00
2018-09-25T19:15:00.184Z,67.00
2018-09-25T19:17:34.680Z,67.30
2018-09-25T19:20:09.570Z,67.90
2018-09-25T19:22:44.307Z,68.50
2018-09-25T19:25:18.690Z,69.00
2018-09-25T19:27:53.602Z,69.50
2018-09-25T19:30:28.068Z,69.60
2018-09-25T19:33:02.548Z,70.10
2018-09-25T19:35:37.297Z,70.00
2018-09-25T19:38:11.769Z,70.00
2018-09-25T19:40:46.596Z,70.10
2018-09-25T19:43:21.090Z,70.10
2018-09-25T19:45:55.505Z,70.10
2018-09-25T19:48:29.819Z,70.20
2018-09-25T19:51:04.169Z,70.40
2018-09-25T19:53:38.765Z,70.40
2018-09-25T19:56:13.280Z,70.60
2018-09-25T19:58:47.898Z,70.50
2018-09-25T20:01:22.238Z,70.60
2018-09-25T20:03:56.633Z,70.80
2018-09-25T20:06:31.036Z,70.60
2018-09-25T20:09:05.457Z,70.70
2018-09-25T20:11:39.783Z,71.40
2018-09-25T20:14:14.420Z,70.80
2018-09-25T20:16:49.078Z,71.00
2018-09-25T20:19:26.354Z,70.90
2018-09-25T20:22:05.372Z,70.90
2018-09-25T20:24:40.892Z,71.10
2018-09-25T20:27:18.216Z,71.00
2018-09-25T20:29:54.754Z,70.90
2018-09-25T20:32:29.854Z,71.10
2018-09-25T20:35:08.390Z,71.10
2018-09-25T20:37:43.831Z,71.10
2018-09-25T20:40:20.383Z,71.20
2018-09-25T20:42:55.618Z,71.40
2018-09-25T20:45:34.784Z,71.40
2018-09-25T20:48:11.586Z,71.50
2018-09-25T20:50:48.995Z,71.70
2018-09-25T20:53:26.641Z,71.60
2018-09-25T20:56:01.482Z,71.70
2018-09-25T20:58:36.319Z,71.70
2018-09-25T21:01:17.029Z,71.60
2018-09-25T21:03:52.363Z,71.50
2018-09-25T21:06:27.536Z,71.60
2018-09-25T21:09:02.973Z,71.70
2018-09-25T21:11:37.909Z,71.50
2018-09-25T21:14:13.863Z,71.30
2018-09-25T21:16:48.572Z,71.20
2018-09-25T21:19:23.482Z,71.20
2018-09-25T21:21:59.887Z,71.00
2018-09-25T21:24:35.587Z,70.90
2018-09-25T21:27:14.280Z,70.80
2018-09-25T21:29:50.621Z,71.20
2018-09-25T21:32:25.884Z,70.60
2018-09-25T21:35:04.177Z,70.50
2018-09-25T21:37:40.909Z,70.90
2018-09-25T21:40:17.930Z,70.50
2018-09-25T21:42:55.329Z,70.60
2018-09-25T21:45:31.385Z,70.60
2018-09-25T21:48:08.443Z,70.60
2018-09-25T21:50:46.581Z,70.30
2018-09-25T21:53:24.572Z,70.30
2018-09-25T21:56:05.498Z,70.50
2018-09-25T21:58:42.266Z,70.30
2018-09-25T22:01:20.228Z,70.50
2018-09-25T22:03:56.888Z,70.30
2018-09-25T22:06:33.616Z,70.30
2018-09-25T22:09:14.180Z,70.90
2018-09-25T22:11:50.774Z,70.00
2018-09-25T22:14:27.605Z,70.00
2018-09-25T22:17:04.111Z,70.00
2018-09-25T22:19:39.823Z,69.90
2018-09-25T22:22:14.965Z,69.90
2018-09-25T22:24:51.613Z,69.80
2018-09-25T22:27:26.127Z,69.80
2018-09-25T22:30:01.817Z,69.60
2018-09-25T22:32:38.241Z,69.70
2018-09-25T22:35:13.543Z,69.60
2018-09-25T22:37:51.501Z,69.70
2018-09-25T22:40:27.956Z,70.50
2018-09-25T22:43:02.623Z,69.80
2018-09-25T22:45:39.477Z,69.70
2018-09-25T22:48:18.405Z,69.60
2018-09-25T22:50:55.950Z,69.60
2018-09-25T22:53:31.140Z,69.60
2018-09-25T22:56:09.384Z,69.50
2018-09-25T22:58:44.778Z,69.40
2018-09-25T23:01:22.734Z,69.40
2018-09-25T23:04:01.163Z,69.60
2018-09-25T23:06:40.667Z,69.70
2018-09-25T23:09:17.769Z,69.90
2018-09-25T23:11:54.475Z,69.80
2018-09-25T23:14:30.227Z,69.60
2018-09-25T23:17:11.274Z,69.60
2018-09-25T23:19:51.566Z,69.30
2018-09-25T23:22:29.751Z,69.60
2018-09-25T23:25:05.592Z,69.50
2018-09-25T23:27:42.406Z,69.60
2018-09-25T23:30:19.670Z,70.00
2018-09-25T23:32:58.174Z,69.30
2018-09-25T23:35:33.336Z,69.20
2018-09-25T23:38:10.942Z,69.40
2018-09-25T23:40:47.360Z,69.40
2018-09-25T23:43:28.244Z,69.40
2018-09-25T23:46:07.175Z,68.90
2018-09-25T23:48:44.754Z,68.90
2018-09-25T23:51:33.645Z,68.90
2018-09-25T23:54:10.638Z,68.90
2018-09-25T23:57:18.395Z,69.00
